createdAt,value
2018-10-03T00:01:56.414Z,9.30
2018-10-03T00:04:24.882Z,9.30
2018-10-03T00:06:53.171Z,9.20
2018-10-03T00:09:21.477Z,9.10
2018-10-03T00:11:49.759Z,9.10
2018-10-03T00:14:18.055Z,9.00
2018-10-03T00:16:46.331Z,9.00
2018-10-03T00:19:14.626Z,9.00
2018-10-03T00:21:42.910Z,9.00
2018-10-03T00:24:11.206Z,9.00
2018-10-03T00:26:39.482Z,9.00
2018-10-03T00:29:07.810Z,9.00
2018-10-03T00:31:36.090Z,8.90
2018-10-03T00:34:04.394Z,8.90
2018-10-03T00:36:32.762Z,8.80
2018-10-03T00:39:01.054Z,8.80
2018-10-03T00:41:29.331Z,8.70
2018-10-03T00:43:57.638Z,8.70
2018-10-03T00:46:25.915Z,8.70
2018-10-03T00:48:54.206Z,8.70
2018-10-03T00:51:22.473Z,8.80
2018-10-03T00:53:50.775Z,8.90
2018-10-03T00:56:19.058Z,9.00
2018-10-03T00:58:47.363Z,9.10
2018-10-03T01:01:15.656Z,9.20
2018-10-03T01:03:43.958Z,9.20
2018-10-03T01:06:12.237Z,9.30
2018-10-03T01:08:40.539Z,9.40
2018-10-03T01:11:08.818Z,9.40
2018-10-03T01:13:37.130Z,9.50
2018-10-03T01:16:05.402Z,9.50
2018-10-03T01:18:33.702Z,9.50
2018-10-03T01:21:01.992Z,9.50
2018-10-03T01:23:30.382Z,9.50
2018-10-03T01:25:58.663Z,9.50
2018-10-03T01:28:26.964Z,9.40
2018-10-03T01:30:55.256Z,9.50
2018-10-03T01:33:23.557Z,9.50
2018-10-03T01:35:51.838Z,9.50
2018-10-03T01:38:20.166Z,9.50
2018-10-03T01:40:48.442Z,9.60
2018-10-03T01:43:16.770Z,9.60
2018-10-03T01:45:45.070Z,9.60
2018-10-03T01:48:13.370Z,9.60
2018-10-03T01:50:41.650Z,9.60
2018-10-03T01:53:09.958Z,9.60
2018-10-03T01:55:38.241Z,9.60
2018-10-03T01:58:06.538Z,9.60
2018-10-03T02:00:34.817Z,9.50
2018-10-03T02:03:03.122Z,9.50
2018-10-03T02:05:31.405Z,9.40
2018-10-03T02:07:59.729Z,9.40
2018-10-03T02:10:28.029Z,9.50
2018-10-03T02:12:56.302Z,9.50
2018-10-03T02:15:24.609Z,9.50
2018-10-03T02:17:52.927Z,9.50
2018-10-03T02:20:21.220Z,9.60
2018-10-03T02:22:49.502Z,9.50
2018-10-03T02:25:17.807Z,9.60
2018-10-03T02:27:46.188Z,9.60
2018-10-03T02:30:14.489Z,9.70
2018-10-03T02:32:42.774Z,9.70
2018-10-03T02:35:11.078Z,9.70
2018-10-03T02:37:39.367Z,9.70
2018-10-03T02:40:07.677Z,9.70
2018-10-03T02:42:35.978Z,9.70
2018-10-03T02:45:04.299Z,9.70
2018-10-03T02:47:32.580Z,9.70
2018-10-03T02:50:01.075Z,9.70
2018-10-03T02:52:29.358Z,9.80
2018-10-03T02:54:57.651Z,9.70
2018-10-03T02:57:26.074Z,9.70
2018-10-03T02:59:54.371Z,9.70
2018-10-03T03:02:22.742Z,9.70
2018-10-03T03:04:51.041Z,9.70
2018-10-03T03:07:19.421Z,9.70
2018-10-03T03:09:47.723Z,9.70
2018-10-03T03:12:16.001Z,9.70
2018-10-03T03:14:44.364Z,9.70
2018-10-03T03:17:12.622Z,9.80
2018-10-03T03:19:40.925Z,9.80
2018-10-03T03:22:09.202Z,9.90
2018-10-03T03:24:37.500Z,9.90
2018-10-03T03:27:05.778Z,9.90
2018-10-03T03:29:34.078Z,9.90
2018-10-03T03:32:02.355Z,9.90
2018-10-03T03:34:30.664Z,9.80
2018-10-03T03:36:58.963Z,9.80
2018-10-03T03:39:27.296Z,9.80
2018-10-03T03:41:55.611Z,9.80
2018-10-03T03:44:23.907Z,9.80
2018-10-03T03:46:52.187Z,9.80
2018-10-03T03:49:20.496Z,9.80
2018-10-03T03:51:48.778Z,9.80
2018-10-03T03:54:17.080Z,9.80
2018-10-03T03:56:45.374Z,9.80
2018-10-03T03:59:13.674Z,9.80
2018-10-03T04:01:41.950Z,9.70
2018-10-03T04:04:10.267Z,9.70
2018-10-03T04:06:38.555Z,9.70
2018-10-03T04:09:07.237Z,9.60
2018-10-03T04:11:35.518Z,9.70
2018-10-03T04:14:03.830Z,9.70
2018-10-03T04:16:32.110Z,9.80
2018-10-03T04:19:00.474Z,9.80
2018-10-03T04:21:33.990Z,9.80
2018-10-03T04:24:02.306Z,9.80
2018-10-03T04:26:30.587Z,9.80
2018-10-03T04:28:58.879Z,9.80
2018-10-03T04:31:27.199Z,9.80
2018-10-03T04:33:55.476Z,9.80
2018-10-03T04:36:24.262Z,9.80
2018-10-03T04:38:52.542Z,9.80
2018-10-03T04:41:20.934Z,9.80
2018-10-03T04:43:49.230Z,9.70
2018-10-03T04:46:17.534Z,9.70
2018-10-03T04:48:45.829Z,9.60
2018-10-03T04:51:14.126Z,9.60
2018-10-03T04:53:42.440Z,9.50
2018-10-03T04:56:10.742Z,9.40
2018-10-03T04:58:39.358Z,9.40
2018-10-03T05:01:07.975Z,9.30
2018-10-03T05:03:36.254Z,9.30
2018-10-03T05:06:04.569Z,9.20
2018-10-03T05:08:32.856Z,9.20
2018-10-03T05:11:01.163Z,9.10
2018-10-03T05:13:29.484Z,9.10
2018-10-03T05:15:57.790Z,9.00
2018-10-03T05:18:26.066Z,9.10
2018-10-03T05:20:54.363Z,9.10
2018-10-03T05:23:22.642Z,9.00
2018-10-03T05:25:50.939Z,9.00
2018-10-03T05:28:19.258Z,9.00
2018-10-03T05:30:47.560Z,9.00
2018-10-03T05:33:15.853Z,9.10
2018-10-03T05:35:44.150Z,9.30
2018-10-03T05:38:12.430Z,9.70
2018-10-03T05:40:40.731Z,9.70
2018-10-03T05:43:09.043Z,9.70
2018-10-03T05:45:37.425Z,9.80
2018-10-03T05:48:05.954Z,9.70
2018-10-03T05:50:34.295Z,9.90
2018-10-03T05:53:02.574Z,9.80
2018-10-03T05:55:30.874Z,9.80
2018-10-03T05:57:59.166Z,9.80
2018-10-03T06:00:27.478Z,9.70
2018-10-03T06:02:55.906Z,9.60
2018-10-03T06:05:24.078Z,9.60
2018-10-03T06:07:52.361Z,9.60
2018-10-03T06:10:20.662Z,9.60
2018-10-03T06:12:48.934Z,9.60
2018-10-03T06:15:17.310Z,9.70
2018-10-03T06:17:45.590Z,9.70
2018-10-03T06:20:13.899Z,9.80
2018-10-03T06:22:42.176Z,9.90
2018-10-03T06:25:11.298Z,10.00
2018-10-03T06:27:39.615Z,10.10
2018-10-03T06:30:07.922Z,10.10
2018-10-03T06:32:36.206Z,10.20
2018-10-03T06:35:04.698Z,10.20
2018-10-03T06:37:32.985Z,10.20
2018-10-03T06:40:01.266Z,10.30
2018-10-03T06:42:29.587Z,10.30
2018-10-03T06:44:57.996Z,10.40
2018-10-03T06:47:26.440Z,10.30
2018-10-03T06:49:54.731Z,10.30
2018-10-03T06:52:23.035Z,10.30
2018-10-03T06:54:51.319Z,10.30
2018-10-03T06:57:19.626Z,10.30
2018-10-03T06:59:47.906Z,10.30
2018-10-03T07:02:16.210Z,10.30
2018-10-03T07:04:44.490Z,10.30
2018-10-03T07:07:13.311Z,10.20
2018-10-03T07:09:41.603Z,10.20
2018-10-03T07:12:09.906Z,10.20
2018-10-03T07:14:38.195Z,10.10
2018-10-03T07:17:06.935Z,10.10
2018-10-03T07:19:35.214Z,10.20
2018-10-03T07:22:03.549Z,10.20
2018-10-03T07:24:31.856Z,10.30
2018-10-03T07:27:00.166Z,10.30
2018-10-03T07:29:28.454Z,10.40
2018-10-03T07:31:56.770Z,10.50
2018-10-03T07:34:25.058Z,10.60
2018-10-03T07:36:53.354Z,10.70
2018-10-03T07:39:21.638Z,10.80
2018-10-03T07:41:49.946Z,10.90
2018-10-03T07:44:18.243Z,11.00
2018-10-03T07:46:46.537Z,11.10
2018-10-03T07:49:14.818Z,11.20
2018-10-03T07:51:43.135Z,11.20
2018-10-03T07:54:11.410Z,11.20
2018-10-03T07:56:39.713Z,11.20
2018-10-03T07:59:08.242Z,11.30
2018-10-03T08:01:36.413Z,11.40
2018-10-03T08:04:04.686Z,11.50
2018-10-03T08:06:32.995Z,11.40
2018-10-03T08:09:01.335Z,11.40
2018-10-03T08:11:29.617Z,11.40
2018-10-03T08:13:57.899Z,11.40
2018-10-03T08:16:26.205Z,11.50
2018-10-03T08:18:54.487Z,11.50
2018-10-03T08:21:22.812Z,11.50
2018-10-03T08:23:51.095Z,11.50
2018-10-03T08:26:19.413Z,11.50
2018-10-03T08:28:47.702Z,11.50
2018-10-03T08:31:16.004Z,11.50
2018-10-03T08:33:44.284Z,11.50
2018-10-03T08:36:12.602Z,11.50
2018-10-03T08:38:40.941Z,11.50
2018-10-03T08:41:09.214Z,11.50
2018-10-03T08:43:37.511Z,11.50
2018-10-03T08:46:05.851Z,11.60
2018-10-03T08:48:34.131Z,11.70
2018-10-03T08:51:02.427Z,11.70
2018-10-03T08:53:30.759Z,11.70
2018-10-03T08:55:59.044Z,11.70
2018-10-03T08:58:27.460Z,11.80
2018-10-03T09:00:55.663Z,11.80
2018-10-03T09:03:23.965Z,11.80
2018-10-03T09:05:52.250Z,11.70
2018-10-03T09:08:20.561Z,11.70
2018-10-03T09:10:49.158Z,11.70
2018-10-03T09:13:17.461Z,11.70
2018-10-03T09:15:45.744Z,11.80
2018-10-03T09:18:14.078Z,11.90
2018-10-03T09:20:42.362Z,11.90
2018-10-03T09:23:10.682Z,12.00
2018-10-03T09:25:39.256Z,12.10
2018-10-03T09:28:07.567Z,12.30
2018-10-03T09:30:36.326Z,12.40
2018-10-03T09:33:04.822Z,12.50
2018-10-03T09:35:33.113Z,12.30
2018-10-03T09:38:01.423Z,12.20
2018-10-03T09:40:29.706Z,12.20
2018-10-03T09:42:58.068Z,12.10
2018-10-03T09:45:26.379Z,12.00
2018-10-03T09:47:54.694Z,12.00
2018-10-03T09:50:23.434Z,12.10
2018-10-03T09:52:51.731Z,12.10
2018-10-03T09:55:20.022Z,12.20
2018-10-03T09:57:48.330Z,12.20
2018-10-03T10:01:20.840Z,12.20
2018-10-03T10:03:49.437Z,12.20
2018-10-03T10:06:17.738Z,12.10
2018-10-03T10:08:46.046Z,12.20
2018-10-03T10:11:15.127Z,12.20
2018-10-03T10:13:43.390Z,12.10
2018-10-03T10:16:11.674Z,11.90
2018-10-03T10:18:39.992Z,11.70
2018-10-03T10:21:08.514Z,11.60
2018-10-03T10:23:36.819Z,11.60
2018-10-03T10:26:05.115Z,11.60
2018-10-03T10:28:33.421Z,11.70
2018-10-03T10:31:01.710Z,12.00
2018-10-03T10:33:30.103Z,12.20
2018-10-03T10:35:58.444Z,12.40
2018-10-03T10:38:26.843Z,12.70
2018-10-03T10:40:55.328Z,12.80
2018-10-03T10:43:23.646Z,12.80
2018-10-03T10:45:51.922Z,12.70
2018-10-03T10:48:20.406Z,12.60
2018-10-03T10:50:48.685Z,12.50
2018-10-03T10:53:16.997Z,12.30
2018-10-03T10:55:45.284Z,12.20
2018-10-03T10:58:13.586Z,12.10
2018-10-03T11:00:41.879Z,12.10
2018-10-03T11:03:10.190Z,12.00
2018-10-03T11:05:38.485Z,11.90
2018-10-03T11:08:06.790Z,11.90
2018-10-03T11:10:35.070Z,11.80
2018-10-03T11:13:03.374Z,11.80
2018-10-03T11:15:31.688Z,11.90
2018-10-03T11:18:00.138Z,11.90
2018-10-03T11:20:28.553Z,12.10
2018-10-03T11:22:56.926Z,12.10
2018-10-03T11:25:25.210Z,12.10
2018-10-03T11:27:53.509Z,12.20
2018-10-03T11:30:21.803Z,12.20
2018-10-03T11:32:50.107Z,12.20
2018-10-03T11:35:18.405Z,12.20
2018-10-03T11:37:46.707Z,12.20
2018-10-03T11:40:15.008Z,12.20
2018-10-03T11:42:43.330Z,12.30
2018-10-03T11:45:11.623Z,12.40
2018-10-03T11:47:39.949Z,12.60
2018-10-03T11:50:08.256Z,12.80
2018-10-03T11:52:36.623Z,12.80
2018-10-03T11:55:04.915Z,12.90
2018-10-03T11:57:33.486Z,12.90
2018-10-03T12:00:01.795Z,12.90
2018-10-03T12:02:30.346Z,13.00
2018-10-03T12:04:58.647Z,13.00
2018-10-03T12:07:26.938Z,12.70
2018-10-03T12:09:55.241Z,12.70
2018-10-03T12:12:23.544Z,12.60
2018-10-03T12:14:51.855Z,12.60
2018-10-03T12:17:20.144Z,12.60
2018-10-03T12:19:48.461Z,12.60
2018-10-03T12:22:16.760Z,12.70
2018-10-03T12:24:45.062Z,12.90
2018-10-03T12:27:13.355Z,13.20
2018-10-03T12:29:41.675Z,13.20
2018-10-03T12:32:09.974Z,13.30
2018-10-03T12:34:38.283Z,13.30
2018-10-03T12:37:06.786Z,13.30
2018-10-03T12:39:35.098Z,13.10
2018-10-03T12:42:03.418Z,13.00
2018-10-03T12:44:31.726Z,13.10
2018-10-03T12:47:00.014Z,13.20
2018-10-03T12:49:28.326Z,13.30
2018-10-03T12:51:56.610Z,13.20
2018-10-03T12:54:24.921Z,13.40
2018-10-03T12:56:53.234Z,13.30
2018-10-03T12:59:21.545Z,13.30
2018-10-03T13:01:49.834Z,13.40
2018-10-03T13:04:18.146Z,13.20
2018-10-03T13:06:46.437Z,13.30
2018-10-03T13:09:15.406Z,13.30
2018-10-03T13:11:44.233Z,13.40
2018-10-03T13:14:13.027Z,13.30
2018-10-03T13:16:41.327Z,13.40
2018-10-03T13:19:09.650Z,13.50
2018-10-03T13:21:38.589Z,13.60
2018-10-03T13:24:06.910Z,13.50
2018-10-03T13:26:35.218Z,13.40
2018-10-03T13:29:03.620Z,13.20
2018-10-03T13:31:32.031Z,13.00
2018-10-03T13:34:00.330Z,13.20
2018-10-03T13:36:28.646Z,13.30
2018-10-03T13:38:56.950Z,13.40
2018-10-03T13:41:25.314Z,13.40
2018-10-03T13:43:53.621Z,13.10
2018-10-03T13:46:21.915Z,13.00
2018-10-03T13:48:50.227Z,12.90
2018-10-03T13:51:18.520Z,13.00
2018-10-03T13:53:46.818Z,13.00
2018-10-03T13:56:15.118Z,13.00
2018-10-03T13:58:43.418Z,13.00
2018-10-03T14:01:11.707Z,13.00
2018-10-03T14:03:40.023Z,13.00
2018-10-03T14:06:08.318Z,13.10
2018-10-03T14:08:36.642Z,13.20
2018-10-03T14:11:04.943Z,13.30
2018-10-03T14:13:33.255Z,13.40
2018-10-03T14:16:01.566Z,13.40
2018-10-03T14:18:29.920Z,13.30
2018-10-03T14:20:58.186Z,13.30
2018-10-03T14:23:26.523Z,13.30
2018-10-03T14:25:54.826Z,13.20
2018-10-03T14:28:23.144Z,13.30
2018-10-03T14:30:51.538Z,13.40
2018-10-03T14:33:19.858Z,13.30
2018-10-03T14:35:48.694Z,13.40
2018-10-03T14:38:17.134Z,13.40
2018-10-03T14:40:45.447Z,13.20
2018-10-03T14:43:13.763Z,13.20
2018-10-03T14:45:42.103Z,13.10
2018-10-03T14:48:10.414Z,13.20
2018-10-03T14:50:40.731Z,13.20
2018-10-03T14:53:09.027Z,13.30
2018-10-03T14:55:37.379Z,13.20
2018-10-03T14:58:05.695Z,13.20
2018-10-03T15:00:34.046Z,13.30
2018-10-03T15:03:02.349Z,13.30
2018-10-03T15:05:31.263Z,13.30
2018-10-03T15:07:59.693Z,13.20
2018-10-03T15:10:28.090Z,13.10
2018-10-03T15:12:56.454Z,13.00
2018-10-03T15:15:24.732Z,12.90
2018-10-03T15:17:53.045Z,12.80
2018-10-03T15:20:21.480Z,12.80
2018-10-03T15:22:50.098Z,12.80
2018-10-03T15:25:18.417Z,12.70
2018-10-03T15:27:46.721Z,12.60
2018-10-03T15:30:15.060Z,12.60
2018-10-03T15:32:43.454Z,12.60
2018-10-03T15:35:11.783Z,12.50
2018-10-03T15:37:40.120Z,12.50
2018-10-03T15:40:08.510Z,12.50
2018-10-03T15:42:36.814Z,12.60
2018-10-03T15:45:05.131Z,12.60
2018-10-03T15:47:33.418Z,12.60
2018-10-03T15:50:01.760Z,12.60
2018-10-03T15:52:30.075Z,12.60
2018-10-03T15:54:58.459Z,12.50
2018-10-03T15:57:26.776Z,12.50
2018-10-03T15:59:55.122Z,12.50
2018-10-03T16:02:23.621Z,12.40
2018-10-03T16:04:51.942Z,12.40
2018-10-03T16:07:20.295Z,12.40
2018-10-03T16:09:48.608Z,12.40
2018-10-03T16:12:16.906Z,12.30
2018-10-03T16:14:45.225Z,12.30
2018-10-03T16:17:13.513Z,12.20
2018-10-03T16:19:41.838Z,12.20
2018-10-03T16:22:10.158Z,12.20
2018-10-03T16:24:38.463Z,12.20
2018-10-03T16:27:06.880Z,12.20
2018-10-03T16:29:35.224Z,12.20
2018-10-03T16:32:03.566Z,12.10
2018-10-03T16:34:31.858Z,12.10
2018-10-03T16:37:00.166Z,12.00
2018-10-03T16:39:28.464Z,12.00
2018-10-03T16:41:56.815Z,11.90
2018-10-03T16:44:25.150Z,11.80
2018-10-03T16:46:53.507Z,11.70
2018-10-03T16:49:21.847Z,11.70
2018-10-03T16:51:50.158Z,11.60
2018-10-03T16:54:18.478Z,11.60
2018-10-03T16:56:46.815Z,11.40
2018-10-03T16:59:15.111Z,11.30
2018-10-03T17:01:43.431Z,11.30
2018-10-03T17:04:11.780Z,11.20
2018-10-03T17:08:04.558Z,11.20
2018-10-03T17:10:32.883Z,11.00
2018-10-03T17:13:01.172Z,11.00
2018-10-03T17:15:29.881Z,10.80
2018-10-03T17:17:58.270Z,10.80
2018-10-03T17:20:26.583Z,10.70
2018-10-03T17:22:54.891Z,10.70
2018-10-03T17:25:23.198Z,10.70
2018-10-03T17:27:51.482Z,10.70
2018-10-03T17:30:19.859Z,10.70
2018-10-03T17:32:48.156Z,10.70
2018-10-03T17:35:16.466Z,10.70
2018-10-03T17:37:44.794Z,10.70
2018-10-03T17:40:13.150Z,10.70
2018-10-03T17:42:41.454Z,10.60
2018-10-03T17:45:09.803Z,10.60
2018-10-03T17:47:38.114Z,10.60
2018-10-03T17:50:06.406Z,10.60
2018-10-03T17:52:34.710Z,10.60
2018-10-03T17:55:02.991Z,10.60
2018-10-03T17:57:31.302Z,10.60
2018-10-03T17:59:59.586Z,10.60
2018-10-03T18:02:27.949Z,10.60
2018-10-03T18:04:56.308Z,10.50
2018-10-03T18:07:24.582Z,10.50
2018-10-03T18:09:52.871Z,10.50
2018-10-03T18:12:21.224Z,10.40
2018-10-03T18:14:49.527Z,10.40
2018-10-03T18:17:17.880Z,10.30
2018-10-03T18:19:46.219Z,10.30
2018-10-03T18:22:14.522Z,10.30
2018-10-03T18:24:42.811Z,10.30
2018-10-03T18:27:11.189Z,10.30
2018-10-03T18:29:39.546Z,10.20
2018-10-03T18:32:08.246Z,10.20
2018-10-03T18:34:36.526Z,10.20
2018-10-03T18:37:05.114Z,10.10
2018-10-03T18:39:33.394Z,10.10
2018-10-03T18:42:01.839Z,10.10
2018-10-03T18:44:30.190Z,10.00
2018-10-03T18:46:58.553Z,10.00
2018-10-03T18:49:26.910Z,10.00
2018-10-03T18:51:55.210Z,9.90
2018-10-03T18:54:23.493Z,10.00
2018-10-03T18:56:51.869Z,10.00
2018-10-03T18:59:20.169Z,10.00
2018-10-03T19:01:48.482Z,9.90
2018-10-03T19:04:16.782Z,9.90
2018-10-03T19:06:45.083Z,9.90
2018-10-03T19:09:13.424Z,9.90
2018-10-03T19:11:41.842Z,9.90
2018-10-03T19:14:10.129Z,10.00
2018-10-03T19:16:38.438Z,10.00
2018-10-03T19:19:06.795Z,10.00
2018-10-03T19:21:35.135Z,10.00
2018-10-03T19:24:03.592Z,10.00
2018-10-03T19:26:31.968Z,10.00
2018-10-03T19:29:00.256Z,10.00
2018-10-03T19:31:28.579Z,10.00
2018-10-03T19:33:56.939Z,10.00
2018-10-03T19:36:25.285Z,9.90
2018-10-03T19:38:53.623Z,9.90
2018-10-03T19:41:21.934Z,9.80
2018-10-03T19:43:50.619Z,9.80
2018-10-03T19:46:18.948Z,9.80
2018-10-03T19:48:47.242Z,9.80
2018-10-03T19:51:15.564Z,9.80
2018-10-03T19:53:43.847Z,9.70
2018-10-03T19:56:12.122Z,9.70
2018-10-03T19:58:40.416Z,9.60
2018-10-03T20:01:08.738Z,9.50
2018-10-03T20:03:37.063Z,9.40
2018-10-03T20:06:05.363Z,9.30
2018-10-03T20:08:33.672Z,9.30
2018-10-03T20:11:01.958Z,9.30
2018-10-03T20:13:30.304Z,9.20
2018-10-03T20:15:58.654Z,9.10
2018-10-03T20:18:26.964Z,9.00
2018-10-03T20:20:55.346Z,8.80
2018-10-03T20:23:23.622Z,8.70
2018-10-03T20:25:51.913Z,8.50
2018-10-03T20:28:20.259Z,8.40
2018-10-03T20:30:48.896Z,8.30
2018-10-03T20:33:17.198Z,8.20
2018-10-03T20:35:45.485Z,8.20
2018-10-03T20:38:13.794Z,8.10
2018-10-03T20:40:42.174Z,8.10
2018-10-03T20:43:10.509Z,8.10
2018-10-03T20:45:38.840Z,7.90
2018-10-03T20:48:07.197Z,7.90
2018-10-03T20:50:35.463Z,7.70
2018-10-03T20:53:03.790Z,7.60
2018-10-03T20:55:32.087Z,7.60
2018-10-03T20:58:00.430Z,7.60
2018-10-03T21:00:28.720Z,7.60
2018-10-03T21:02:57.087Z,7.60
2018-10-03T21:05:25.362Z,7.50
2018-10-03T21:07:53.662Z,7.50
2018-10-03T21:10:21.946Z,7.50
2018-10-03T21:12:50.246Z,7.50
2018-10-03T21:15:18.539Z,7.60
2018-10-03T21:17:46.837Z,7.70
2018-10-03T21:20:15.156Z,7.70
2018-10-03T21:22:43.482Z,7.60
2018-10-03T21:25:11.787Z,7.50
2018-10-03T21:27:40.138Z,7.40
2018-10-03T21:30:08.531Z,7.40
2018-10-03T21:32:37.035Z,7.40
2018-10-03T21:35:05.636Z,7.30
2018-10-03T21:37:33.978Z,7.30
2018-10-03T21:40:02.863Z,7.20
2018-10-03T21:42:31.295Z,7.10
2018-10-03T21:44:59.623Z,7.10
2018-10-03T21:47:27.939Z,7.20
2018-10-03T21:49:56.231Z,7.30
2018-10-03T21:52:24.530Z,7.30
2018-10-03T21:54:52.818Z,7.30
2018-10-03T21:57:21.135Z,7.40
2018-10-03T21:59:49.422Z,7.50
2018-10-03T22:02:17.742Z,7.50
2018-10-03T22:04:46.030Z,7.60
2018-10-03T22:07:14.653Z,7.60
2018-10-03T22:09:42.951Z,7.60
2018-10-03T22:12:11.235Z,7.70
2018-10-03T22:14:39.578Z,7.70
2018-10-03T22:17:16.035Z,7.60
2018-10-03T22:19:44.375Z,7.50
2018-10-03T22:22:12.687Z,7.40
2018-10-03T22:24:40.988Z,7.40
2018-10-03T22:27:09.278Z,7.50
2018-10-03T22:29:37.954Z,7.60
2018-10-03T22:32:06.690Z,7.60
2018-10-03T22:34:34.994Z,7.70
2018-10-03T22:37:03.274Z,7.60
2018-10-03T22:39:31.633Z,7.40
2018-10-03T22:41:59.947Z,7.30
2018-10-03T22:44:28.266Z,7.10
2018-10-03T22:46:56.554Z,7.00
2018-10-03T22:49:24.871Z,7.00
2018-10-03T22:51:53.154Z,6.90
2018-10-03T22:54:21.449Z,6.80
2018-10-03T22:56:49.785Z,6.80
2018-10-03T22:59:18.086Z,6.70
2018-10-03T23:01:46.382Z,6.70
2018-10-03T23:04:14.699Z,6.70
2018-10-03T23:06:42.986Z,6.70
2018-10-03T23:09:11.294Z,6.60
2018-10-03T23:11:39.570Z,6.50
2018-10-03T23:14:07.869Z,6.50
2018-10-03T23:16:36.162Z,6.40
2018-10-03T23:19:04.464Z,6.40
2018-10-03T23:21:32.745Z,6.30
2018-10-03T23:24:01.089Z,6.30
2018-10-03T23:26:29.385Z,6.20
2018-10-03T23:28:57.688Z,6.10
2018-10-03T23:31:25.963Z,6.00
2018-10-03T23:33:54.267Z,5.90
2018-10-03T23:36:22.559Z,5.90
2018-10-03T23:38:50.853Z,5.90
2018-10-03T23:41:19.142Z,6.00
2018-10-03T23:43:47.471Z,6.00
2018-10-03T23:46:15.794Z,6.00
2018-10-03T23:48:44.131Z,6.00
2018-10-03T23:51:12.419Z,6.10
2018-10-03T23:53:40.711Z,6.10
2018-10-03T23:56:08.986Z,6.10
2018-10-03T23:58:37.283Z,6.10
